createdAt,value
2024-03-28T00:00:40.213Z,7.97
2024-03-28T00:01:40.216Z,7.96
2024-03-28T00:02:40.192Z,7.85
2024-03-28T00:03:40.182Z,7.85
2024-03-28T00:04:40.614Z,7.96
2024-03-28T00:05:40.191Z,7.96
2024-03-28T00:06:40.158Z,7.89
2024-03-28T00:07:40.150Z,7.84
2024-03-28T00:08:40.155Z,7.84
2024-03-28T00:09:40.170Z,7.82
2024-03-28T00:10:40.145Z,7.79
2024-03-28T00:11:40.138Z,7.87
2024-03-28T00:12:40.124Z,7.75
2024-03-28T00:13:40.110Z,7.75
2024-03-28T00:14:40.107Z,7.74
2024-03-28T00:15:40.128Z,7.71
2024-03-28T00:16:40.095Z,7.79
2024-03-28T00:17:40.098Z,7.75
2024-03-28T00:18:40.095Z,7.71
2024-03-28T00:19:40.103Z,7.78
2024-03-28T00:20:40.233Z,7.67
2024-03-28T00:21:40.065Z,7.67
2024-03-28T00:22:40.063Z,7.62
2024-03-28T00:23:40.058Z,7.60
2024-03-28T00:24:40.055Z,7.55
2024-03-28T00:25:40.048Z,7.66
2024-03-28T00:26:40.042Z,7.58
2024-03-28T00:27:40.026Z,7.59
2024-03-28T00:28:40.028Z,7.52
2024-03-28T00:29:40.028Z,7.55
2024-03-28T00:30:40.012Z,7.60
2024-03-28T00:31:40.020Z,7.59
2024-03-28T00:32:39.993Z,7.47
2024-03-28T00:33:39.992Z,7.47
2024-03-28T00:34:39.991Z,7.37
2024-03-28T00:35:39.974Z,7.50
2024-03-28T00:36:39.986Z,7.34
2024-03-28T00:37:39.951Z,7.32
2024-03-28T00:38:39.949Z,7.34
2024-03-28T00:39:39.938Z,7.34
2024-03-28T00:40:39.935Z,7.35
2024-03-28T00:41:39.930Z,7.35
2024-03-28T00:42:39.942Z,7.31
2024-03-28T00:43:39.925Z,7.27
2024-03-28T00:44:40.068Z,7.27
2024-03-28T00:45:40.901Z,7.32
2024-03-28T00:46:39.890Z,7.29
2024-03-28T00:47:39.916Z,7.31
2024-03-28T00:48:39.890Z,7.34
2024-03-28T00:49:39.876Z,7.26
2024-03-28T00:50:39.878Z,7.26
2024-03-28T00:51:39.866Z,7.26
2024-03-28T00:52:39.877Z,7.19
2024-03-28T00:53:39.856Z,7.26
2024-03-28T00:54:39.837Z,7.23
2024-03-28T00:55:39.843Z,7.26
2024-03-28T00:56:39.841Z,7.26
2024-03-28T00:57:39.838Z,7.29
2024-03-28T00:58:39.832Z,7.15
2024-03-28T00:59:39.835Z,7.13
2024-03-28T01:00:39.817Z,7.22
2024-03-28T01:01:39.803Z,7.26
2024-03-28T01:02:39.787Z,7.22
2024-03-28T01:03:39.789Z,7.22
2024-03-28T01:04:39.800Z,7.20
2024-03-28T01:05:39.776Z,7.12
2024-03-28T01:06:39.781Z,7.13
2024-03-28T01:07:39.782Z,7.16
2024-03-28T01:08:39.757Z,7.17
2024-03-28T01:09:41.885Z,7.20
2024-03-28T01:10:40.737Z,7.26
2024-03-28T01:11:39.729Z,7.20
2024-03-28T01:12:39.738Z,7.09
2024-03-28T01:13:39.721Z,7.12
2024-03-28T01:14:39.724Z,7.19
2024-03-28T01:15:39.710Z,7.16
2024-03-28T01:16:39.717Z,7.22
2024-03-28T01:17:39.694Z,7.13
2024-03-28T01:18:39.684Z,7.16
2024-03-28T01:19:39.687Z,7.09
2024-03-28T01:20:39.684Z,7.19
2024-03-28T01:21:39.670Z,7.15
2024-03-28T01:22:39.666Z,7.09
2024-03-28T01:23:39.648Z,7.08
2024-03-28T01:24:39.650Z,7.12
2024-03-28T01:25:39.695Z,7.17
2024-03-28T01:26:39.625Z,7.04
2024-03-28T01:27:39.634Z,6.99
2024-03-28T01:28:39.636Z,7.12
2024-03-28T01:29:39.666Z,7.07
2024-03-28T01:30:39.620Z,7.07
2024-03-28T01:31:39.662Z,7.07
2024-03-28T01:32:39.618Z,7.13
2024-03-28T01:33:39.593Z,7.09
2024-03-28T01:34:39.580Z,7.12
2024-03-28T01:35:39.569Z,7.04
2024-03-28T01:36:39.584Z,7.05
2024-03-28T01:37:39.552Z,7.17
2024-03-28T01:38:39.542Z,7.15
2024-03-28T01:39:39.538Z,7.05
2024-03-28T01:40:39.713Z,7.01
2024-03-28T01:41:39.542Z,6.95
2024-03-28T01:42:39.511Z,7.09
2024-03-28T01:43:39.518Z,7.08
2024-03-28T01:44:39.503Z,7.07
2024-03-28T01:45:39.525Z,7.12
2024-03-28T01:46:43.708Z,7.19
2024-03-28T01:47:48.837Z,7.08
2024-03-28T01:48:41.497Z,7.12
2024-03-28T01:49:39.479Z,7.08
2024-03-28T01:50:39.476Z,7.08
2024-03-28T01:51:39.497Z,7.01
2024-03-28T01:52:39.466Z,7.09
2024-03-28T01:53:39.461Z,7.07
2024-03-28T01:54:39.439Z,6.99
2024-03-28T01:55:39.450Z,7.01
2024-03-28T01:56:39.430Z,6.94
2024-03-28T01:57:39.442Z,6.90
2024-03-28T01:58:39.454Z,6.94
2024-03-28T01:59:39.421Z,6.94
2024-03-28T02:00:39.409Z,6.91
2024-03-28T02:01:39.407Z,6.90
2024-03-28T02:02:39.410Z,6.86
2024-03-28T02:03:39.383Z,6.77
2024-03-28T02:04:39.377Z,6.86
2024-03-28T02:05:39.385Z,6.84
2024-03-28T02:06:39.435Z,6.91
2024-03-28T02:07:39.383Z,6.90
2024-03-28T02:08:39.353Z,6.90
2024-03-28T02:09:39.373Z,6.83
2024-03-28T02:10:39.367Z,6.91
2024-03-28T02:11:39.345Z,6.86
2024-03-28T02:12:39.342Z,6.84
2024-03-28T02:13:39.322Z,6.77
2024-03-28T02:14:39.338Z,6.81
2024-03-28T02:15:39.306Z,6.77
2024-03-28T02:16:39.300Z,6.83
2024-03-28T02:17:39.310Z,6.76
2024-03-28T02:18:39.288Z,6.84
2024-03-28T02:19:39.290Z,6.69
2024-03-28T02:20:39.282Z,6.81
2024-03-28T02:21:39.274Z,6.76
2024-03-28T02:22:39.289Z,6.73
2024-03-28T02:23:39.262Z,6.81
2024-03-28T02:24:39.253Z,6.79
2024-03-28T02:25:39.249Z,6.77
2024-03-28T02:26:39.243Z,6.71
2024-03-28T02:27:39.244Z,6.86
2024-03-28T02:28:39.275Z,6.87
2024-03-28T02:29:39.222Z,6.89
2024-03-28T02:30:39.206Z,6.79
2024-03-28T02:31:40.218Z,6.69
2024-03-28T02:32:39.211Z,6.81
2024-03-28T02:33:39.203Z,6.81
2024-03-28T02:34:39.183Z,6.80
2024-03-28T02:35:39.201Z,6.81
2024-03-28T02:36:39.174Z,6.83
2024-03-28T02:37:39.179Z,6.90
2024-03-28T02:38:39.156Z,6.91
2024-03-28T02:39:39.152Z,6.94
2024-03-28T02:40:39.147Z,6.87
2024-03-28T02:41:39.135Z,6.94
2024-03-28T02:42:39.147Z,6.95
2024-03-28T02:43:39.131Z,7.08
2024-03-28T02:44:39.129Z,7.09
2024-03-28T02:45:39.107Z,7.08
2024-03-28T02:46:39.120Z,7.13
2024-03-28T02:47:39.103Z,7.23
2024-03-28T02:48:39.140Z,7.17
2024-03-28T02:49:39.094Z,7.15
2024-03-28T02:50:39.079Z,7.04
2024-03-28T02:51:39.072Z,7.13
2024-03-28T02:52:39.085Z,7.07
2024-03-28T02:53:39.082Z,7.13
2024-03-28T02:54:39.053Z,7.07
2024-03-28T02:55:39.051Z,7.13
2024-03-28T02:56:39.040Z,7.13
2024-03-28T02:57:39.032Z,7.09
2024-03-28T02:58:39.026Z,7.07
2024-03-28T02:59:39.035Z,7.04
2024-03-28T03:00:39.025Z,7.19
2024-03-28T03:01:39.004Z,7.09
2024-03-28T03:02:39.008Z,7.08
2024-03-28T03:03:39.000Z,7.15
2024-03-28T03:04:39.000Z,7.08
2024-03-28T03:05:38.982Z,7.12
2024-03-28T03:06:40.472Z,7.22
2024-03-28T03:07:38.968Z,7.17
2024-03-28T03:08:38.961Z,7.09
2024-03-28T03:09:38.964Z,7.16
2024-03-28T03:10:38.975Z,7.12
2024-03-28T03:11:38.935Z,7.16
2024-03-28T03:12:38.934Z,7.12
2024-03-28T03:13:38.924Z,7.13
2024-03-28T03:14:38.929Z,7.09
2024-03-28T03:15:38.916Z,7.12
2024-03-28T03:16:38.910Z,7.16
2024-03-28T03:17:38.890Z,7.13
2024-03-28T03:18:38.892Z,7.07
2024-03-28T03:19:38.879Z,7.07
2024-03-28T03:20:38.888Z,7.15
2024-03-28T03:21:38.875Z,7.12
2024-03-28T03:22:38.864Z,7.05
2024-03-28T03:23:38.858Z,7.07
2024-03-28T03:24:38.863Z,7.01
2024-03-28T03:25:38.850Z,7.15
2024-03-28T03:26:38.842Z,7.13
2024-03-28T03:27:38.840Z,7.04
2024-03-28T03:28:38.826Z,7.08
2024-03-28T03:29:38.813Z,7.04
2024-03-28T03:30:38.818Z,7.02
2024-03-28T03:31:38.797Z,7.07
2024-03-28T03:32:38.798Z,7.02
2024-03-28T03:33:38.785Z,7.04
2024-03-28T03:34:38.774Z,6.94
2024-03-28T03:35:38.771Z,7.04
2024-03-28T03:36:38.775Z,6.89
2024-03-28T03:37:38.773Z,6.95
2024-03-28T03:38:38.757Z,6.98
2024-03-28T03:39:38.744Z,6.98
2024-03-28T03:40:38.735Z,6.86
2024-03-28T03:41:38.745Z,6.91
2024-03-28T03:42:38.720Z,6.83
2024-03-28T03:43:38.747Z,6.89
2024-03-28T03:44:38.724Z,6.99
2024-03-28T03:45:38.706Z,6.89
2024-03-28T03:46:38.711Z,6.89
2024-03-28T03:47:38.707Z,6.91
2024-03-28T03:48:38.699Z,6.95
2024-03-28T03:49:38.678Z,6.98
2024-03-28T03:50:38.683Z,6.94
2024-03-28T03:51:38.679Z,6.95
2024-03-28T03:52:38.670Z,6.94
2024-03-28T03:53:38.659Z,6.91
2024-03-28T03:54:38.999Z,7.01
2024-03-28T03:55:39.523Z,7.01
2024-03-28T03:56:38.691Z,7.02
2024-03-28T03:57:38.630Z,7.04
2024-03-28T03:58:38.640Z,7.16
2024-03-28T03:59:38.623Z,7.04
2024-03-28T04:00:38.613Z,7.12
2024-03-28T04:01:38.612Z,7.07
2024-03-28T04:02:38.595Z,7.07
2024-03-28T04:03:38.627Z,7.07
2024-03-28T04:04:38.588Z,7.17
2024-03-28T04:05:38.576Z,7.01
2024-03-28T04:06:38.574Z,7.04
2024-03-28T04:07:38.586Z,7.02
2024-03-28T04:08:38.555Z,7.04
2024-03-28T04:09:38.550Z,6.95
2024-03-28T04:10:39.531Z,6.97
2024-03-28T04:11:38.557Z,7.01
2024-03-28T04:12:38.611Z,7.01
2024-03-28T04:13:38.532Z,7.04
2024-03-28T04:14:43.520Z,6.97
2024-03-28T04:15:40.514Z,7.02
2024-03-28T04:16:38.501Z,6.91
2024-03-28T04:17:38.511Z,6.99
2024-03-28T04:18:38.505Z,6.94
2024-03-28T04:19:38.487Z,7.01
2024-03-28T04:20:38.487Z,6.91
2024-03-28T04:21:40.742Z,6.98
2024-03-28T04:22:38.492Z,6.83
2024-03-28T04:23:38.470Z,6.91
2024-03-28T04:24:38.447Z,6.80
2024-03-28T04:25:38.440Z,6.97
2024-03-28T04:26:38.435Z,6.81
2024-03-28T04:27:38.427Z,6.91
2024-03-28T04:28:38.439Z,6.83
2024-03-28T04:29:38.510Z,6.84
2024-03-28T04:30:38.411Z,6.84
2024-03-28T04:31:38.402Z,6.86
2024-03-28T04:32:38.401Z,6.90
2024-03-28T04:33:38.418Z,6.91
2024-03-28T04:34:38.375Z,6.87
2024-03-28T04:35:38.396Z,6.86
2024-03-28T04:36:38.371Z,6.77
2024-03-28T04:37:38.368Z,6.86
2024-03-28T04:38:39.608Z,6.79
2024-03-28T04:39:38.356Z,6.77
2024-03-28T04:40:38.349Z,6.79
2024-03-28T04:41:38.343Z,6.76
2024-03-28T04:42:38.339Z,6.71
2024-03-28T04:43:39.453Z,6.76
2024-03-28T04:44:39.331Z,6.69
2024-03-28T04:45:39.315Z,6.68
2024-03-28T04:46:38.307Z,6.69
2024-03-28T04:47:38.322Z,6.71
2024-03-28T04:48:38.318Z,6.79
2024-03-28T04:49:38.308Z,6.65
2024-03-28T04:50:38.280Z,6.69
2024-03-28T04:51:38.294Z,6.73
2024-03-28T04:52:38.282Z,6.66
2024-03-28T04:53:38.263Z,6.73
2024-03-28T04:54:38.269Z,6.71
2024-03-28T04:55:38.255Z,6.71
2024-03-28T04:56:38.243Z,6.66
2024-03-28T04:57:38.237Z,6.72
2024-03-28T04:58:38.231Z,6.58
2024-03-28T04:59:38.229Z,6.66
2024-03-28T05:00:38.213Z,6.69
2024-03-28T05:01:38.242Z,6.63
2024-03-28T05:02:38.223Z,6.68
2024-03-28T05:03:38.208Z,6.63
2024-03-28T05:04:38.187Z,6.59
2024-03-28T05:05:38.184Z,6.61
2024-03-28T05:06:38.184Z,6.58
2024-03-28T05:07:38.171Z,6.66
2024-03-28T05:08:38.176Z,6.56
2024-03-28T05:09:38.156Z,6.58
2024-03-28T05:10:38.158Z,6.51
2024-03-28T05:11:38.148Z,6.53
2024-03-28T05:12:38.143Z,6.51
2024-03-28T05:13:38.141Z,6.48
2024-03-28T05:14:38.132Z,6.54
2024-03-28T05:15:38.118Z,6.46
2024-03-28T05:16:38.120Z,6.50
2024-03-28T05:17:38.106Z,6.46
2024-03-28T05:18:38.104Z,6.46
2024-03-28T05:19:38.087Z,6.48
2024-03-28T05:20:38.082Z,6.35
2024-03-28T05:21:38.106Z,6.41
2024-03-28T05:22:38.065Z,6.36
2024-03-28T05:23:38.062Z,6.41
2024-03-28T05:24:38.097Z,6.36
2024-03-28T05:25:38.052Z,6.41
2024-03-28T05:26:38.071Z,6.35
2024-03-28T05:27:38.039Z,6.33
2024-03-28T05:28:38.042Z,6.32
2024-03-28T05:29:38.036Z,6.41
2024-03-28T05:30:38.015Z,6.30
2024-03-28T05:31:38.011Z,6.41
2024-03-28T05:32:38.001Z,6.30
2024-03-28T05:33:38.013Z,6.32
2024-03-28T05:34:37.991Z,6.33
2024-03-28T05:35:37.982Z,6.43
2024-03-28T05:36:38.027Z,6.38
2024-03-28T05:37:37.964Z,6.35
2024-03-28T05:38:39.022Z,6.32
2024-03-28T05:39:37.957Z,6.30
2024-03-28T05:40:37.970Z,6.33
2024-03-28T05:41:37.954Z,6.35
2024-03-28T05:42:37.931Z,6.36
2024-03-28T05:43:37.930Z,6.33
2024-03-28T05:44:37.917Z,6.35
2024-03-28T05:45:37.906Z,6.33
2024-03-28T05:46:37.991Z,6.38
2024-03-28T05:47:37.906Z,6.46
2024-03-28T05:48:37.952Z,6.47
2024-03-28T05:49:37.912Z,6.40
2024-03-28T05:50:38.081Z,6.40
2024-03-28T05:51:37.872Z,6.51
2024-03-28T05:52:37.859Z,6.44
2024-03-28T05:53:37.860Z,6.48
2024-03-28T05:54:37.847Z,6.54
2024-03-28T05:55:37.866Z,6.48
2024-03-28T05:56:40.031Z,6.50
2024-03-28T05:57:38.879Z,6.47
2024-03-28T05:58:37.832Z,6.48
2024-03-28T05:59:37.838Z,6.48
2024-03-28T06:00:37.829Z,6.46
2024-03-28T06:01:37.806Z,6.53
2024-03-28T06:02:37.881Z,6.56
2024-03-28T06:03:37.807Z,6.62
2024-03-28T06:04:37.784Z,6.65
2024-03-28T06:05:37.841Z,6.54
2024-03-28T06:06:37.833Z,6.54
2024-03-28T06:07:37.822Z,6.63
2024-03-28T06:08:37.825Z,6.53
2024-03-28T06:09:37.744Z,6.66
2024-03-28T06:10:37.766Z,6.58
2024-03-28T06:11:37.790Z,6.59
2024-03-28T06:12:37.736Z,6.59
2024-03-28T06:13:37.947Z,6.68
2024-03-28T06:14:37.749Z,6.76
2024-03-28T06:15:37.720Z,6.69
2024-03-28T06:16:37.866Z,6.90
2024-03-28T06:17:37.700Z,6.81
2024-03-28T06:18:37.700Z,6.87
2024-03-28T06:19:37.749Z,6.89
2024-03-28T06:20:37.683Z,6.89
2024-03-28T06:21:37.730Z,6.94
2024-03-28T06:22:37.674Z,6.87
2024-03-28T06:23:37.665Z,6.89
2024-03-28T06:24:37.650Z,6.84
2024-03-28T06:25:37.663Z,6.83
2024-03-28T06:26:37.683Z,6.68
2024-03-28T06:27:37.651Z,6.86
2024-03-28T06:28:37.629Z,6.89
2024-03-28T06:29:37.610Z,6.99
2024-03-28T06:30:37.613Z,6.87
2024-03-28T06:31:37.639Z,7.05
2024-03-28T06:32:37.660Z,7.01
2024-03-28T06:33:37.644Z,7.09
2024-03-28T06:34:37.594Z,7.09
2024-03-28T06:35:39.863Z,7.13
2024-03-28T06:36:37.584Z,7.04
2024-03-28T06:37:37.589Z,7.15
2024-03-28T06:38:37.578Z,7.17
2024-03-28T06:39:37.556Z,7.09
2024-03-28T06:40:37.539Z,7.17
2024-03-28T06:41:37.667Z,7.12
2024-03-28T06:42:37.522Z,7.23
2024-03-28T06:43:37.531Z,7.34
2024-03-28T06:44:38.981Z,7.29
2024-03-28T06:45:37.530Z,7.32
2024-03-28T06:46:37.507Z,7.41
2024-03-28T06:47:37.495Z,7.55
2024-03-28T06:48:37.499Z,7.67
2024-03-28T06:49:37.487Z,7.75
2024-03-28T06:50:37.487Z,7.81
2024-03-28T06:51:37.504Z,8.11
2024-03-28T06:52:37.462Z,8.53
2024-03-28T06:53:37.459Z,8.63
2024-03-28T06:54:37.448Z,8.75
2024-03-28T06:55:37.442Z,8.96
2024-03-28T06:56:37.435Z,9.32
2024-03-28T06:57:37.433Z,9.66
2024-03-28T06:58:37.446Z,10.00
2024-03-28T06:59:37.424Z,10.28
2024-03-28T07:00:37.426Z,10.40
2024-03-28T07:01:37.408Z,10.55
2024-03-28T07:02:37.397Z,10.56
2024-03-28T07:03:37.399Z,10.25
2024-03-28T07:04:37.380Z,10.77
2024-03-28T07:05:37.387Z,10.60
2024-03-28T07:06:37.375Z,10.17
2024-03-28T07:07:37.366Z,9.82
2024-03-28T07:08:37.380Z,9.67
2024-03-28T07:09:37.345Z,9.61
2024-03-28T07:10:37.354Z,9.76
2024-03-28T07:11:37.326Z,10.34
2024-03-28T07:12:37.328Z,10.73
2024-03-28T07:13:37.328Z,10.58
2024-03-28T07:14:37.316Z,10.71
2024-03-28T07:15:37.298Z,11.19
2024-03-28T07:16:37.356Z,11.41
2024-03-28T07:17:37.292Z,11.83
2024-03-28T07:18:37.328Z,12.05
2024-03-28T07:19:37.285Z,12.12
2024-03-28T07:20:37.271Z,11.90
2024-03-28T07:21:37.278Z,11.90
2024-03-28T07:22:37.265Z,11.74
2024-03-28T07:23:37.267Z,11.72
2024-03-28T07:24:37.271Z,11.93
2024-03-28T07:25:37.238Z,11.65
2024-03-28T07:26:37.238Z,11.32
2024-03-28T07:27:37.224Z,11.44
2024-03-28T07:28:37.249Z,11.64
2024-03-28T07:29:37.220Z,11.85
2024-03-28T07:30:37.215Z,12.08
2024-03-28T07:31:37.199Z,12.15
2024-03-28T07:32:37.196Z,12.05
2024-03-28T07:33:37.197Z,12.04
2024-03-28T07:34:37.187Z,12.08
2024-03-28T07:35:37.184Z,12.08
2024-03-28T07:36:37.167Z,12.16
2024-03-28T07:37:37.183Z,12.34
2024-03-28T07:38:37.184Z,12.33
2024-03-28T07:39:37.182Z,12.30
2024-03-28T07:40:37.142Z,12.34
2024-03-28T07:41:37.136Z,12.49
2024-03-28T07:42:37.146Z,12.69
2024-03-28T07:43:37.118Z,12.75
2024-03-28T07:44:37.141Z,12.82
2024-03-28T07:45:37.108Z,12.88
2024-03-28T07:46:37.118Z,12.95
2024-03-28T07:47:37.148Z,12.89
2024-03-28T07:48:38.039Z,12.75
2024-03-28T07:49:37.096Z,12.79
2024-03-28T07:50:37.098Z,12.97
2024-03-28T07:51:37.065Z,13.04
2024-03-28T07:52:37.053Z,12.99
2024-03-28T07:53:37.052Z,13.29
2024-03-28T07:54:37.330Z,13.56
2024-03-28T07:55:38.043Z,13.62
2024-03-28T07:56:37.018Z,13.47
2024-03-28T07:57:37.015Z,13.79
2024-03-28T07:58:37.056Z,13.47
2024-03-28T07:59:37.014Z,13.56
2024-03-28T08:00:37.014Z,13.80
2024-03-28T08:01:37.000Z,14.16
2024-03-28T08:02:36.974Z,14.02
2024-03-28T08:03:36.985Z,13.63
2024-03-28T08:04:36.968Z,13.80
2024-03-28T08:05:36.969Z,13.56
2024-03-28T08:06:36.945Z,13.52
2024-03-28T08:07:36.949Z,13.63
2024-03-28T08:08:36.948Z,12.75
2024-03-28T08:09:36.930Z,11.99
2024-03-28T08:10:36.913Z,11.35
2024-03-28T08:11:36.934Z,11.13
2024-03-28T08:12:36.906Z,11.24
2024-03-28T08:13:36.920Z,11.85
2024-03-28T08:14:36.888Z,12.41
2024-03-28T08:15:36.902Z,12.93
2024-03-28T08:16:36.969Z,13.69
2024-03-28T08:17:36.879Z,14.35
2024-03-28T08:18:36.863Z,14.19
2024-03-28T08:19:36.859Z,14.50
2024-03-28T08:20:36.874Z,14.60
2024-03-28T08:21:36.835Z,14.69
2024-03-28T08:22:36.844Z,14.65
2024-03-28T08:23:36.847Z,14.80
2024-03-28T08:24:36.840Z,14.35
2024-03-28T08:25:36.815Z,14.52
2024-03-28T08:26:36.825Z,14.95
2024-03-28T08:27:36.817Z,15.33
2024-03-28T08:28:36.792Z,15.33
2024-03-28T08:29:36.804Z,15.49
2024-03-28T08:30:36.796Z,15.59
2024-03-28T08:31:37.491Z,14.95
2024-03-28T08:32:36.775Z,13.47
2024-03-28T08:33:36.775Z,12.70
2024-03-28T08:34:36.761Z,12.29
2024-03-28T08:35:36.755Z,11.47
2024-03-28T08:36:36.795Z,11.02
2024-03-28T08:37:36.736Z,10.78
2024-03-28T08:38:36.729Z,10.56
2024-03-28T08:39:36.729Z,10.42
2024-03-28T08:40:36.753Z,10.34
2024-03-28T08:41:36.742Z,10.40
2024-03-28T08:42:36.726Z,10.46
2024-03-28T08:43:36.711Z,10.42
2024-03-28T08:44:36.688Z,10.18
2024-03-28T08:45:36.718Z,10.17
2024-03-28T08:46:36.702Z,10.00
2024-03-28T08:47:36.777Z,9.94
2024-03-28T08:48:36.673Z,9.97
2024-03-28T08:49:36.675Z,9.94
2024-03-28T08:50:36.660Z,9.88
2024-03-28T08:51:36.683Z,9.76
2024-03-28T08:52:36.673Z,9.82
2024-03-28T08:53:36.710Z,9.78
2024-03-28T08:54:36.661Z,9.81
2024-03-28T08:55:36.631Z,9.83
2024-03-28T08:56:36.661Z,9.75
2024-03-28T08:57:36.651Z,9.76
2024-03-28T08:58:36.639Z,9.68
2024-03-28T08:59:36.634Z,9.70
2024-03-28T09:00:36.630Z,9.53
2024-03-28T09:01:37.553Z,9.58
2024-03-28T09:02:36.597Z,9.53
2024-03-28T09:03:36.557Z,9.52
2024-03-28T09:04:36.600Z,9.50
2024-03-28T09:05:36.583Z,9.50
2024-03-28T09:06:36.618Z,9.38
2024-03-28T09:07:36.539Z,9.42
2024-03-28T09:08:36.580Z,9.39
2024-03-28T09:09:36.574Z,9.52
2024-03-28T09:10:37.438Z,9.48
2024-03-28T09:11:37.497Z,9.50
2024-03-28T09:12:36.506Z,9.46
2024-03-28T09:13:36.546Z,9.48
2024-03-28T09:14:36.471Z,9.35
2024-03-28T09:15:36.477Z,9.45
2024-03-28T09:16:36.504Z,9.28
2024-03-28T09:17:36.456Z,9.25
2024-03-28T09:18:36.455Z,9.30
2024-03-28T09:19:36.450Z,9.28
2024-03-28T09:20:36.435Z,9.21
2024-03-28T09:21:36.444Z,9.20
2024-03-28T09:22:36.461Z,9.27
2024-03-28T09:23:36.419Z,9.28
2024-03-28T09:24:36.445Z,9.31
2024-03-28T09:25:36.518Z,9.30
2024-03-28T09:26:36.715Z,9.27
2024-03-28T09:27:36.392Z,9.15
2024-03-28T09:28:36.405Z,9.18
2024-03-28T09:29:36.371Z,9.09
2024-03-28T09:30:36.371Z,9.15
2024-03-28T09:31:36.578Z,9.18
2024-03-28T09:32:36.346Z,9.13
2024-03-28T09:33:36.341Z,9.18
2024-03-28T09:34:36.336Z,9.18
2024-03-28T09:35:36.331Z,9.05
2024-03-28T09:36:36.323Z,9.09
2024-03-28T09:37:36.316Z,9.01
2024-03-28T09:38:36.303Z,9.18
2024-03-28T09:39:36.308Z,9.21
2024-03-28T09:40:36.352Z,9.24
2024-03-28T09:41:36.273Z,9.28
2024-03-28T09:42:36.310Z,9.24
2024-03-28T09:43:36.271Z,9.15
2024-03-28T09:44:36.261Z,9.20
2024-03-28T09:45:36.245Z,9.09
2024-03-28T09:46:36.317Z,9.15
2024-03-28T09:47:36.238Z,9.10
2024-03-28T09:48:36.221Z,9.05
2024-03-28T09:49:36.242Z,8.96
2024-03-28T09:50:36.210Z,8.90
2024-03-28T09:51:36.215Z,8.72
2024-03-28T09:52:36.254Z,8.73
2024-03-28T09:53:36.251Z,8.69
2024-03-28T09:54:36.193Z,8.44
2024-03-28T09:55:36.198Z,8.40
2024-03-28T09:56:36.219Z,8.30
2024-03-28T09:57:36.162Z,8.14
2024-03-28T09:58:36.248Z,8.08
2024-03-28T09:59:36.158Z,8.12
2024-03-28T10:00:36.282Z,8.29
2024-03-28T10:01:36.234Z,8.54
2024-03-28T10:02:36.141Z,8.58
2024-03-28T10:03:36.123Z,8.47
2024-03-28T10:04:36.128Z,8.37
2024-03-28T10:05:36.109Z,8.30
2024-03-28T10:06:36.162Z,8.48
2024-03-28T10:07:36.109Z,8.47
2024-03-28T10:08:36.085Z,8.48
2024-03-28T10:09:36.074Z,8.47
2024-03-28T10:10:36.093Z,8.40
2024-03-28T10:11:36.112Z,8.33
2024-03-28T10:12:36.046Z,8.25
2024-03-28T10:13:36.056Z,8.25
2024-03-28T10:14:36.050Z,8.18
2024-03-28T10:15:36.036Z,8.20
2024-03-28T10:16:36.099Z,8.18
2024-03-28T10:17:36.027Z,8.14
2024-03-28T10:18:36.006Z,8.07
2024-03-28T10:19:36.048Z,8.18
2024-03-28T10:20:36.005Z,8.17
2024-03-28T10:21:36.078Z,8.12
2024-03-28T10:22:37.030Z,8.12
2024-03-28T10:23:35.984Z,8.11
2024-03-28T10:24:35.979Z,8.08
2024-03-28T10:25:36.047Z,8.08
2024-03-28T10:26:35.972Z,8.03
2024-03-28T10:27:35.958Z,8.02
2024-03-28T10:28:36.018Z,7.99
2024-03-28T10:29:35.958Z,7.94
2024-03-28T10:30:35.940Z,7.97
2024-03-28T10:31:35.959Z,7.90
2024-03-28T10:32:35.930Z,7.82
2024-03-28T10:33:35.937Z,7.84
2024-03-28T10:34:35.926Z,7.81
2024-03-28T10:35:35.911Z,7.79
2024-03-28T10:36:35.889Z,7.77
2024-03-28T10:37:45.332Z,7.78
2024-03-28T10:38:38.003Z,7.74
2024-03-28T10:39:35.869Z,7.81
2024-03-28T10:40:35.873Z,7.82
2024-03-28T10:41:36.526Z,7.94
2024-03-28T10:42:35.861Z,7.87
2024-03-28T10:43:35.874Z,7.89
2024-03-28T10:44:35.844Z,7.96
2024-03-28T10:45:35.842Z,7.92
2024-03-28T10:46:35.845Z,7.97
2024-03-28T10:47:35.912Z,7.94
2024-03-28T10:48:35.847Z,7.96
2024-03-28T10:49:35.874Z,7.93
2024-03-28T10:50:35.797Z,7.92
2024-03-28T10:51:35.785Z,7.92
2024-03-28T10:52:35.841Z,7.87
2024-03-28T10:53:37.872Z,7.89
2024-03-28T10:54:35.901Z,7.99
2024-03-28T10:55:36.198Z,7.93
2024-03-28T10:56:36.750Z,7.99
2024-03-28T10:57:35.754Z,7.97
2024-03-28T10:58:35.752Z,7.94
2024-03-28T10:59:35.748Z,8.00
2024-03-28T11:00:35.727Z,8.00
2024-03-28T11:01:36.443Z,8.03
2024-03-28T11:02:36.771Z,7.92
2024-03-28T11:03:35.705Z,7.93
2024-03-28T11:04:35.731Z,8.00
2024-03-28T11:05:35.722Z,7.97
2024-03-28T11:06:35.693Z,7.90
2024-03-28T11:07:35.715Z,8.00
2024-03-28T11:08:35.678Z,8.07
2024-03-28T11:09:35.662Z,8.02
2024-03-28T11:10:35.678Z,7.99
2024-03-28T11:11:35.664Z,8.03
2024-03-28T11:12:35.645Z,7.99
2024-03-28T11:13:35.651Z,7.99
2024-03-28T11:14:35.641Z,7.89
2024-03-28T11:15:35.642Z,8.02
2024-03-28T11:16:35.721Z,7.90
2024-03-28T11:17:35.631Z,7.92
2024-03-28T11:18:35.601Z,7.97
2024-03-28T11:19:35.612Z,7.82
2024-03-28T11:20:35.585Z,7.90
2024-03-28T11:21:36.061Z,8.00
2024-03-28T11:22:35.596Z,8.02
2024-03-28T11:23:35.580Z,7.94
2024-03-28T11:24:35.563Z,8.04
2024-03-28T11:25:36.838Z,8.03
2024-03-28T11:26:36.056Z,8.07
2024-03-28T11:27:35.589Z,8.20
2024-03-28T11:28:35.591Z,8.25
2024-03-28T11:29:35.536Z,8.29
2024-03-28T11:30:36.583Z,8.22
2024-03-28T11:31:38.610Z,8.25
2024-03-28T11:32:36.508Z,8.29
2024-03-28T11:33:35.496Z,8.39
2024-03-28T11:34:35.513Z,8.29
2024-03-28T11:35:35.502Z,8.36
2024-03-28T11:36:36.041Z,8.30
2024-03-28T11:37:35.533Z,8.32
2024-03-28T11:38:35.475Z,8.30
2024-03-28T11:39:35.503Z,8.37
2024-03-28T11:40:35.510Z,8.30
2024-03-28T11:41:35.452Z,8.30
2024-03-28T11:42:39.710Z,8.28
2024-03-28T11:43:37.501Z,8.35
2024-03-28T11:44:35.430Z,8.39
2024-03-28T11:45:35.428Z,8.40
2024-03-28T11:46:35.465Z,8.47
2024-03-28T11:47:35.465Z,8.54
2024-03-28T11:48:35.506Z,8.54
2024-03-28T11:49:35.403Z,8.53
2024-03-28T11:50:35.388Z,8.40
2024-03-28T11:51:35.453Z,8.48
2024-03-28T11:52:36.418Z,8.54
2024-03-28T11:53:35.478Z,8.48
2024-03-28T11:54:35.389Z,8.60
2024-03-28T11:55:35.372Z,8.48
2024-03-28T11:56:35.363Z,8.55
2024-03-28T11:57:35.370Z,8.53
2024-03-28T11:58:35.375Z,8.54
2024-03-28T11:59:35.333Z,8.68
2024-03-28T12:00:35.351Z,8.71
2024-03-28T12:01:36.827Z,8.69
2024-03-28T12:02:35.340Z,8.84
2024-03-28T12:03:35.311Z,8.93
2024-03-28T12:04:35.294Z,9.04
2024-03-28T12:05:35.305Z,8.97
2024-03-28T12:06:35.486Z,9.05
2024-03-28T12:07:35.276Z,9.12
2024-03-28T12:08:41.647Z,9.05
2024-03-28T12:09:36.293Z,9.04
2024-03-28T12:10:35.254Z,9.06
2024-03-28T12:11:35.290Z,9.04
2024-03-28T12:12:35.269Z,9.04
2024-03-28T12:13:35.309Z,9.05
2024-03-28T12:14:35.222Z,8.97
2024-03-28T12:15:35.225Z,8.86
2024-03-28T12:16:35.263Z,8.90
2024-03-28T12:17:35.221Z,8.83
2024-03-28T12:18:35.194Z,8.87
2024-03-28T12:19:35.197Z,8.91
2024-03-28T12:20:35.195Z,8.88
2024-03-28T12:21:35.180Z,8.83
2024-03-28T12:22:35.280Z,8.88
2024-03-28T12:23:35.158Z,8.88
2024-03-28T12:24:35.148Z,8.96
2024-03-28T12:25:35.168Z,8.97
2024-03-28T12:26:35.134Z,9.10
2024-03-28T12:27:35.161Z,9.21
2024-03-28T12:28:35.172Z,9.57
2024-03-28T12:29:35.121Z,10.15
2024-03-28T12:30:35.171Z,11.01
2024-03-28T12:31:35.202Z,11.35
2024-03-28T12:32:35.137Z,11.64
2024-03-28T12:33:35.090Z,12.02
2024-03-28T12:34:35.192Z,12.38
2024-03-28T12:35:35.184Z,12.88
2024-03-28T12:36:36.090Z,13.33
2024-03-28T12:37:35.070Z,13.54
2024-03-28T12:38:35.066Z,13.46
2024-03-28T12:39:35.069Z,13.36
2024-03-28T12:40:35.549Z,13.29
2024-03-28T12:41:35.044Z,13.88
2024-03-28T12:42:35.043Z,14.31
2024-03-28T12:43:35.038Z,13.71
2024-03-28T12:44:35.027Z,13.47
2024-03-28T12:45:35.087Z,13.61
2024-03-28T12:46:35.191Z,14.07
2024-03-28T12:47:34.993Z,14.12
2024-03-28T12:48:35.947Z,13.76
2024-03-28T12:49:34.976Z,14.09
2024-03-28T12:50:34.964Z,14.28
2024-03-28T12:51:34.989Z,14.31
2024-03-28T12:52:35.189Z,14.65
2024-03-28T12:53:34.944Z,14.47
2024-03-28T12:54:34.938Z,14.12
2024-03-28T12:55:34.962Z,13.62
2024-03-28T12:56:34.949Z,13.46
2024-03-28T12:57:34.932Z,13.21
2024-03-28T12:58:34.952Z,13.15
2024-03-28T12:59:34.907Z,12.96
2024-03-28T13:00:34.902Z,12.84
2024-03-28T13:01:35.053Z,12.62
2024-03-28T13:02:34.924Z,12.56
2024-03-28T13:03:34.879Z,12.45
2024-03-28T13:04:34.884Z,12.21
2024-03-28T13:05:34.866Z,12.21
2024-03-28T13:06:37.011Z,12.13
2024-03-28T13:07:35.840Z,12.06
2024-03-28T13:08:34.868Z,11.97
2024-03-28T13:09:34.821Z,11.87
2024-03-28T13:10:34.845Z,11.75
2024-03-28T13:11:34.804Z,11.93
2024-03-28T13:12:34.851Z,12.15
2024-03-28T13:13:34.816Z,12.26